sensor_id;sensor_type;location;lat;lon;timestamp;P1;durP1;ratioP1;P2;durP2;ratioP2
55800;SDS011;41730;51.960;20.158;2023-05-25T00:00:09;24.20;;;16.50;;
55800;SDS011;41730;51.960;20.158;2023-05-25T00:02:41;28.60;;;17.30;;
55800;SDS011;41730;51.960;20.158;2023-05-25T00:05:10;26.50;;;16.80;;
55800;SDS011;41730;51.960;20.158;2023-05-25T00:07:40;24.40;;;16.10;;
55800;SDS011;41730;51.960;20.158;2023-05-25T00:10:09;27.10;;;16.60;;
55800;SDS011;41730;51.960;20.158;2023-05-25T00:12:38;27.90;;;16.70;;
55800;SDS011;41730;51.960;20.158;2023-05-25T00:15:08;29.40;;;16.40;;
55800;SDS011;41730;51.960;20.158;2023-05-25T00:17:38;23.30;;;15.40;;
55800;SDS011;41730;51.960;20.158;2023-05-25T00:20:08;26.30;;;17.00;;
55800;SDS011;41730;51.960;20.158;2023-05-25T00:22:42;33.00;;;19.80;;
55800;SDS011;41730;51.960;20.158;2023-05-25T00:25:11;28.70;;;17.50;;
55800;SDS011;41730;51.960;20.158;2023-05-25T00:27:40;29.30;;;18.10;;
55800;SDS011;41730;51.960;20.158;2023-05-25T00:30:10;26.90;;;17.50;;
55800;SDS011;41730;51.960;20.158;2023-05-25T00:32:39;27.60;;;17.70;;
55800;SDS011;41730;51.960;20.158;2023-05-25T00:35:08;30.10;;;17.70;;
55800;SDS011;41730;51.960;20.158;2023-05-25T00:37:37;25.30;;;16.20;;
55800;SDS011;41730;51.960;20.158;2023-05-25T00:40:07;27.80;;;16.90;;
55800;SDS011;41730;51.960;20.158;2023-05-25T00:42:40;33.80;;;19.40;;
55800;SDS011;41730;51.960;20.158;2023-05-25T00:45:11;29.70;;;17.70;;
55800;SDS011;41730;51.960;20.158;2023-05-25T00:47:41;33.30;;;18.80;;
55800;SDS011;41730;51.960;20.158;2023-05-25T00:50:11;32.80;;;18.90;;
55800;SDS011;41730;51.960;20.158;2023-05-25T00:52:43;28.60;;;17.90;;
55800;SDS011;41730;51.960;20.158;2023-05-25T00:55:12;28.20;;;18.00;;
55800;SDS011;41730;51.960;20.158;2023-05-25T00:57:45;27.70;;;16.50;;
55800;SDS011;41730;51.960;20.158;2023-05-25T01:00:18;33.40;;;20.00;;
55800;SDS011;41730;51.960;20.158;2023-05-25T01:02:47;26.90;;;16.40;;
55800;SDS011;41730;51.960;20.158;2023-05-25T01:05:19;31.80;;;17.50;;
55800;SDS011;41730;51.960;20.158;2023-05-25T01:07:51;30.40;;;18.50;;
55800;SDS011;41730;51.960;20.158;2023-05-25T01:10:21;32.80;;;19.30;;
55800;SDS011;41730;51.960;20.158;2023-05-25T01:12:52;31.70;;;18.50;;
55800;SDS011;41730;51.960;20.158;2023-05-25T01:15:23;27.40;;;18.10;;
55800;SDS011;41730;51.960;20.158;2023-05-25T01:17:53;27.90;;;17.00;;
55800;SDS011;41730;51.960;20.158;2023-05-25T01:20:25;30.50;;;18.30;;
55800;SDS011;41730;51.960;20.158;2023-05-25T01:22:56;27.90;;;18.20;;
55800;SDS011;41730;51.960;20.158;2023-05-25T01:25:30;32.70;;;18.20;;
55800;SDS011;41730;51.960;20.158;2023-05-25T01:28:04;31.00;;;17.60;;
55800;SDS011;41730;51.960;20.158;2023-05-25T01:30:37;32.00;;;18.80;;
55800;SDS011;41730;51.960;20.158;2023-05-25T01:33:09;29.60;;;17.10;;
55800;SDS011;41730;51.960;20.158;2023-05-25T01:35:39;30.30;;;18.90;;
55800;SDS011;41730;51.960;20.158;2023-05-25T01:38:09;30.40;;;18.30;;
55800;SDS011;41730;51.960;20.158;2023-05-25T01:40:39;26.50;;;16.70;;
55800;SDS011;41730;51.960;20.158;2023-05-25T01:43:09;29.20;;;18.60;;
55800;SDS011;41730;51.960;20.158;2023-05-25T01:45:38;27.80;;;16.60;;
55800;SDS011;41730;51.960;20.158;2023-05-25T01:48:09;29.50;;;18.00;;
55800;SDS011;41730;51.960;20.158;2023-05-25T01:50:48;31.00;;;17.70;;
55800;SDS011;41730;51.960;20.158;2023-05-25T01:53:21;29.80;;;17.60;;
55800;SDS011;41730;51.960;20.158;2023-05-25T01:58:25;28.50;;;17.10;;
55800;SDS011;41730;51.960;20.158;2023-05-25T02:00:58;31.10;;;18.20;;
55800;SDS011;41730;51.960;20.158;2023-05-25T02:03:27;25.10;;;16.30;;
55800;SDS011;41730;51.960;20.158;2023-05-25T02:05:56;27.50;;;17.00;;
55800;SDS011;41730;51.960;20.158;2023-05-25T02:08:25;26.00;;;16.80;;
55800;SDS011;41730;51.960;20.158;2023-05-25T02:10:54;28.60;;;17.70;;
55800;SDS011;41730;51.960;20.158;2023-05-25T02:13:23;27.80;;;17.00;;
55800;SDS011;41730;51.960;20.158;2023-05-25T02:15:52;27.50;;;16.40;;
55800;SDS011;41730;51.960;20.158;2023-05-25T02:18:21;24.10;;;16.20;;
55800;SDS011;41730;51.960;20.158;2023-05-25T02:20:50;31.10;;;17.70;;
55800;SDS011;41730;51.960;20.158;2023-05-25T02:23:19;28.30;;;17.80;;
55800;SDS011;41730;51.960;20.158;2023-05-25T02:25:47;29.40;;;17.30;;
55800;SDS011;41730;51.960;20.158;2023-05-25T02:28:17;30.20;;;17.40;;
55800;SDS011;41730;51.960;20.158;2023-05-25T02:30:46;31.20;;;17.80;;
55800;SDS011;41730;51.960;20.158;2023-05-25T02:33:15;25.30;;;16.80;;
55800;SDS011;41730;51.960;20.158;2023-05-25T02:35:45;31.40;;;18.10;;
55800;SDS011;41730;51.960;20.158;2023-05-25T02:38:13;29.30;;;17.40;;
55800;SDS011;41730;51.960;20.158;2023-05-25T02:40:44;33.20;;;18.90;;
55800;SDS011;41730;51.960;20.158;2023-05-25T02:43:12;27.70;;;17.30;;
55800;SDS011;41730;51.960;20.158;2023-05-25T02:45:41;29.30;;;17.80;;
55800;SDS011;41730;51.960;20.158;2023-05-25T02:48:11;32.40;;;19.20;;
55800;SDS011;41730;51.960;20.158;2023-05-25T02:50:39;27.00;;;16.20;;
55800;SDS011;41730;51.960;20.158;2023-05-25T02:53:08;33.00;;;18.10;;
55800;SDS011;41730;51.960;20.158;2023-05-25T02:55:37;27.70;;;17.20;;
55800;SDS011;41730;51.960;20.158;2023-05-25T02:58:09;26.90;;;16.50;;
55800;SDS011;41730;51.960;20.158;2023-05-25T03:00:38;25.70;;;17.00;;
55800;SDS011;41730;51.960;20.158;2023-05-25T03:03:08;29.50;;;17.80;;
55800;SDS011;41730;51.960;20.158;2023-05-25T03:05:38;27.90;;;17.90;;
55800;SDS011;41730;51.960;20.158;2023-05-25T03:08:07;26.80;;;16.90;;
55800;SDS011;41730;51.960;20.158;2023-05-25T03:10:36;32.20;;;19.10;;
55800;SDS011;41730;51.960;20.158;2023-05-25T03:13:04;30.90;;;19.70;;
55800;SDS011;41730;51.960;20.158;2023-05-25T03:15:33;31.20;;;18.10;;
55800;SDS011;41730;51.960;20.158;2023-05-25T03:18:02;30.90;;;17.60;;
55800;SDS011;41730;51.960;20.158;2023-05-25T03:20:31;27.00;;;17.40;;
55800;SDS011;41730;51.960;20.158;2023-05-25T03:23:01;29.60;;;17.80;;
55800;SDS011;41730;51.960;20.158;2023-05-25T03:25:30;32.70;;;18.50;;
55800;SDS011;41730;51.960;20.158;2023-05-25T03:27:58;28.90;;;17.70;;
55800;SDS011;41730;51.960;20.158;2023-05-25T03:30:28;32.20;;;18.80;;
55800;SDS011;41730;51.960;20.158;2023-05-25T03:35:35;31.00;;;17.80;;
55800;SDS011;41730;51.960;20.158;2023-05-25T03:38:09;32.20;;;17.90;;
55800;SDS011;41730;51.960;20.158;2023-05-25T03:40:37;32.00;;;18.20;;
55800;SDS011;41730;51.960;20.158;2023-05-25T03:43:06;27.90;;;17.90;;
55800;SDS011;41730;51.960;20.158;2023-05-25T03:45:35;29.30;;;18.10;;
55800;SDS011;41730;51.960;20.158;2023-05-25T03:48:04;30.20;;;18.00;;
55800;SDS011;41730;51.960;20.158;2023-05-25T03:50:33;25.80;;;17.10;;
55800;SDS011;41730;51.960;20.158;2023-05-25T03:53:02;27.50;;;18.10;;
55800;SDS011;41730;51.960;20.158;2023-05-25T03:55:31;28.00;;;17.20;;
55800;SDS011;41730;51.960;20.158;2023-05-25T03:58:02;30.60;;;19.00;;
55800;SDS011;41730;51.960;20.158;2023-05-25T04:00:31;31.60;;;18.00;;
55800;SDS011;41730;51.960;20.158;2023-05-25T04:03:00;28.20;;;17.60;;
55800;SDS011;41730;51.960;20.158;2023-05-25T04:05:29;33.20;;;18.40;;
55800;SDS011;41730;51.960;20.158;2023-05-25T04:07:57;32.00;;;18.10;;
55800;SDS011;41730;51.960;20.158;2023-05-25T04:10:28;30.90;;;17.90;;
55800;SDS011;41730;51.960;20.158;2023-05-25T04:12:57;26.40;;;16.90;;
55800;SDS011;41730;51.960;20.158;2023-05-25T04:15:26;26.00;;;17.40;;
55800;SDS011;41730;51.960;20.158;2023-05-25T04:17:56;29.60;;;17.60;;
55800;SDS011;41730;51.960;20.158;2023-05-25T04:20:25;28.60;;;17.00;;
55800;SDS011;41730;51.960;20.158;2023-05-25T04:22:54;28.40;;;17.00;;
55800;SDS011;41730;51.960;20.158;2023-05-25T04:25:23;30.90;;;17.50;;
55800;SDS011;41730;51.960;20.158;2023-05-25T04:27:55;26.40;;;16.70;;
55800;SDS011;41730;51.960;20.158;2023-05-25T04:30:24;32.70;;;18.40;;
55800;SDS011;41730;51.960;20.158;2023-05-25T04:32:54;25.90;;;17.30;;
55800;SDS011;41730;51.960;20.158;2023-05-25T04:35:28;25.50;;;16.70;;
55800;SDS011;41730;51.960;20.158;2023-05-25T04:37:57;29.70;;;17.00;;
55800;SDS011;41730;51.960;20.158;2023-05-25T04:40:28;28.90;;;18.10;;
55800;SDS011;41730;51.960;20.158;2023-05-25T04:42:58;29.20;;;16.50;;
55800;SDS011;41730;51.960;20.158;2023-05-25T04:45:27;25.30;;;16.70;;
55800;SDS011;41730;51.960;20.158;2023-05-25T04:47:59;24.70;;;15.50;;
55800;SDS011;41730;51.960;20.158;2023-05-25T04:50:29;29.40;;;17.10;;
55800;SDS011;41730;51.960;20.158;2023-05-25T04:52:57;25.90;;;16.30;;
55800;SDS011;41730;51.960;20.158;2023-05-25T04:55:26;25.00;;;16.60;;
55800;SDS011;41730;51.960;20.158;2023-05-25T04:57:55;25.90;;;15.10;;
55800;SDS011;41730;51.960;20.158;2023-05-25T05:00:24;25.20;;;16.80;;
55800;SDS011;41730;51.960;20.158;2023-05-25T05:02:54;24.20;;;15.80;;
55800;SDS011;41730;51.960;20.158;2023-05-25T05:05:23;27.00;;;15.80;;
55800;SDS011;41730;51.960;20.158;2023-05-25T05:07:52;24.30;;;15.20;;
55800;SDS011;41730;51.960;20.158;2023-05-25T05:10:21;28.00;;;15.80;;
55800;SDS011;41730;51.960;20.158;2023-05-25T05:12:50;27.30;;;15.90;;
55800;SDS011;41730;51.960;20.158;2023-05-25T05:15:19;24.80;;;15.60;;
55800;SDS011;41730;51.960;20.158;2023-05-25T05:17:48;21.20;;;15.00;;
55800;SDS011;41730;51.960;20.158;2023-05-25T05:20:17;20.90;;;14.50;;
55800;SDS011;41730;51.960;20.158;2023-05-25T05:22:46;22.20;;;15.50;;
55800;SDS011;41730;51.960;20.158;2023-05-25T05:25:15;23.90;;;16.40;;
55800;SDS011;41730;51.960;20.158;2023-05-25T05:27:44;24.80;;;15.10;;
55800;SDS011;41730;51.960;20.158;2023-05-25T05:30:13;22.00;;;15.00;;
55800;SDS011;41730;51.960;20.158;2023-05-25T05:32:42;22.80;;;14.90;;
55800;SDS011;41730;51.960;20.158;2023-05-25T05:35:13;22.70;;;14.60;;
55800;SDS011;41730;51.960;20.158;2023-05-25T05:37:42;19.90;;;14.40;;
55800;SDS011;41730;51.960;20.158;2023-05-25T05:40:12;18.70;;;14.80;;
55800;SDS011;41730;51.960;20.158;2023-05-25T05:42:41;19.40;;;14.70;;
55800;SDS011;41730;51.960;20.158;2023-05-25T05:45:10;23.10;;;15.60;;
55800;SDS011;41730;51.960;20.158;2023-05-25T05:47:39;19.90;;;14.40;;
55800;SDS011;41730;51.960;20.158;2023-05-25T05:50:10;22.20;;;14.80;;
55800;SDS011;41730;51.960;20.158;2023-05-25T05:52:39;20.90;;;13.70;;
55800;SDS011;41730;51.960;20.158;2023-05-25T05:55:09;19.80;;;14.20;;
55800;SDS011;41730;51.960;20.158;2023-05-25T05:57:38;22.60;;;14.30;;
55800;SDS011;41730;51.960;20.158;2023-05-25T06:00:08;24.10;;;15.20;;
55800;SDS011;41730;51.960;20.158;2023-05-25T06:02:39;19.10;;;14.50;;
55800;SDS011;41730;51.960;20.158;2023-05-25T06:05:09;20.00;;;13.30;;
55800;SDS011;41730;51.960;20.158;2023-05-25T06:07:39;21.20;;;14.20;;
55800;SDS011;41730;51.960;20.158;2023-05-25T06:10:08;21.30;;;14.50;;
55800;SDS011;41730;51.960;20.158;2023-05-25T06:12:38;21.00;;;13.90;;
55800;SDS011;41730;51.960;20.158;2023-05-25T06:15:08;16.10;;;12.50;;
55800;SDS011;41730;51.960;20.158;2023-05-25T06:17:38;21.00;;;13.00;;
55800;SDS011;41730;51.960;20.158;2023-05-25T06:20:08;16.00;;;12.00;;
55800;SDS011;41730;51.960;20.158;2023-05-25T06:22:38;18.90;;;12.60;;
55800;SDS011;41730;51.960;20.158;2023-05-25T06:25:08;20.20;;;13.60;;
55800;SDS011;41730;51.960;20.158;2023-05-25T06:27:37;22.00;;;13.30;;
55800;SDS011;41730;51.960;20.158;2023-05-25T06:30:08;19.70;;;12.50;;
55800;SDS011;41730;51.960;20.158;2023-05-25T06:32:38;16.90;;;12.20;;
55800;SDS011;41730;51.960;20.158;2023-05-25T06:35:09;18.70;;;12.70;;
55800;SDS011;41730;51.960;20.158;2023-05-25T06:37:45;20.50;;;12.40;;
55800;SDS011;41730;51.960;20.158;2023-05-25T06:40:15;18.70;;;13.00;;
55800;SDS011;41730;51.960;20.158;2023-05-25T06:42:44;17.90;;;12.70;;
55800;SDS011;41730;51.960;20.158;2023-05-25T06:45:13;18.30;;;12.60;;
55800;SDS011;41730;51.960;20.158;2023-05-25T06:47:43;16.00;;;12.10;;
55800;SDS011;41730;51.960;20.158;2023-05-25T06:50:12;14.60;;;11.30;;
55800;SDS011;41730;51.960;20.158;2023-05-25T06:52:41;17.50;;;11.70;;
55800;SDS011;41730;51.960;20.158;2023-05-25T06:55:10;18.10;;;12.20;;
55800;SDS011;41730;51.960;20.158;2023-05-25T06:57:40;15.70;;;12.20;;
55800;SDS011;41730;51.960;20.158;2023-05-25T07:00:11;18.60;;;11.60;;
55800;SDS011;41730;51.960;20.158;2023-05-25T07:02:43;17.20;;;12.00;;
55800;SDS011;41730;51.960;20.158;2023-05-25T07:05:13;14.40;;;10.90;;
55800;SDS011;41730;51.960;20.158;2023-05-25T07:07:41;17.30;;;11.70;;
55800;SDS011;41730;51.960;20.158;2023-05-25T07:10:11;17.30;;;11.50;;
55800;SDS011;41730;51.960;20.158;2023-05-25T07:12:39;18.30;;;13.00;;
55800;SDS011;41730;51.960;20.158;2023-05-25T07:15:10;14.60;;;11.60;;
55800;SDS011;41730;51.960;20.158;2023-05-25T07:17:41;18.90;;;13.70;;
55800;SDS011;41730;51.960;20.158;2023-05-25T07:20:12;18.50;;;13.10;;
55800;SDS011;41730;51.960;20.158;2023-05-25T07:22:45;18.00;;;13.00;;
55800;SDS011;41730;51.960;20.158;2023-05-25T07:25:15;18.90;;;13.60;;
55800;SDS011;41730;51.960;20.158;2023-05-25T07:27:47;16.60;;;12.40;;
55800;SDS011;41730;51.960;20.158;2023-05-25T07:30:20;21.90;;;14.00;;
55800;SDS011;41730;51.960;20.158;2023-05-25T07:32:56;17.10;;;12.60;;
55800;SDS011;41730;51.960;20.158;2023-05-25T07:35:31;18.60;;;13.10;;
55800;SDS011;41730;51.960;20.158;2023-05-25T07:38:05;18.30;;;13.90;;
55800;SDS011;41730;51.960;20.158;2023-05-25T07:40:35;143.30;;;20.10;;
55800;SDS011;41730;51.960;20.158;2023-05-25T07:43:05;18.90;;;13.80;;
55800;SDS011;41730;51.960;20.158;2023-05-25T07:45:36;19.00;;;13.90;;
55800;SDS011;41730;51.960;20.158;2023-05-25T07:48:07;20.70;;;14.30;;
55800;SDS011;41730;51.960;20.158;2023-05-25T07:50:36;22.10;;;13.50;;
55800;SDS011;41730;51.960;20.158;2023-05-25T07:53:07;20.00;;;14.30;;
55800;SDS011;41730;51.960;20.158;2023-05-25T07:55:36;79.90;;;16.80;;
55800;SDS011;41730;51.960;20.158;2023-05-25T07:58:05;15.70;;;11.80;;
55800;SDS011;41730;51.960;20.158;2023-05-25T08:00:35;27.20;;;13.40;;
55800;SDS011;41730;51.960;20.158;2023-05-25T08:03:04;18.10;;;13.40;;
55800;SDS011;41730;51.960;20.158;2023-05-25T08:05:34;18.60;;;12.50;;
55800;SDS011;41730;51.960;20.158;2023-05-25T08:08:04;18.60;;;12.10;;
55800;SDS011;41730;51.960;20.158;2023-05-25T08:10:35;17.00;;;12.40;;
55800;SDS011;41730;51.960;20.158;2023-05-25T08:13:04;13.00;;;10.70;;
55800;SDS011;41730;51.960;20.158;2023-05-25T08:15:34;13.70;;;11.50;;
55800;SDS011;41730;51.960;20.158;2023-05-25T08:18:04;15.70;;;11.10;;
55800;SDS011;41730;51.960;20.158;2023-05-25T08:20:33;14.80;;;10.80;;
55800;SDS011;41730;51.960;20.158;2023-05-25T08:23:03;15.90;;;11.90;;
55800;SDS011;41730;51.960;20.158;2023-05-25T08:25:32;14.20;;;10.40;;
55800;SDS011;41730;51.960;20.158;2023-05-25T08:28:01;14.40;;;11.70;;
55800;SDS011;41730;51.960;20.158;2023-05-25T08:30:30;12.10;;;9.90;;
55800;SDS011;41730;51.960;20.158;2023-05-25T08:33:00;13.70;;;11.80;;
55800;SDS011;41730;51.960;20.158;2023-05-25T08:35:31;13.10;;;11.20;;
55800;SDS011;41730;51.960;20.158;2023-05-25T08:38:00;15.80;;;11.70;;
55800;SDS011;41730;51.960;20.158;2023-05-25T08:40:29;15.20;;;11.90;;
55800;SDS011;41730;51.960;20.158;2023-05-25T08:42:59;13.50;;;11.10;;
55800;SDS011;41730;51.960;20.158;2023-05-25T08:45:29;14.30;;;11.40;;
55800;SDS011;41730;51.960;20.158;2023-05-25T08:48:14;14.20;;;11.20;;
55800;SDS011;41730;51.960;20.158;2023-05-25T08:50:50;12.50;;;11.00;;
55800;SDS011;41730;51.960;20.158;2023-05-25T08:53:21;13.40;;;10.80;;
55800;SDS011;41730;51.960;20.158;2023-05-25T08:55:50;13.90;;;10.90;;
55800;SDS011;41730;51.960;20.158;2023-05-25T08:58:25;13.70;;;11.20;;
55800;SDS011;41730;51.960;20.158;2023-05-25T09:01:01;15.50;;;10.70;;
55800;SDS011;41730;51.960;20.158;2023-05-25T09:03:35;12.10;;;10.40;;
55800;SDS011;41730;51.960;20.158;2023-05-25T09:06:06;13.70;;;11.20;;
55800;SDS011;41730;51.960;20.158;2023-05-25T09:08:36;12.40;;;9.80;;
55800;SDS011;41730;51.960;20.158;2023-05-25T09:11:06;12.90;;;10.10;;
55800;SDS011;41730;51.960;20.158;2023-05-25T09:13:36;13.90;;;10.00;;
55800;SDS011;41730;51.960;20.158;2023-05-25T09:16:07;92.40;;;17.50;;
55800;SDS011;41730;51.960;20.158;2023-05-25T09:18:37;14.40;;;10.90;;
55800;SDS011;41730;51.960;20.158;2023-05-25T09:21:07;15.30;;;10.50;;
55800;SDS011;41730;51.960;20.158;2023-05-25T09:23:39;13.00;;;10.50;;
55800;SDS011;41730;51.960;20.158;2023-05-25T09:26:09;12.50;;;11.00;;
55800;SDS011;41730;51.960;20.158;2023-05-25T09:28:44;11.40;;;10.00;;
55800;SDS011;41730;51.960;20.158;2023-05-25T09:31:14;22.80;;;12.10;;
55800;SDS011;41730;51.960;20.158;2023-05-25T09:33:43;14.10;;;11.50;;
55800;SDS011;41730;51.960;20.158;2023-05-25T09:36:14;14.30;;;10.00;;
55800;SDS011;41730;51.960;20.158;2023-05-25T09:38:46;18.00;;;10.50;;
55800;SDS011;41730;51.960;20.158;2023-05-25T09:41:16;11.20;;;9.30;;
55800;SDS011;41730;51.960;20.158;2023-05-25T09:43:45;14.00;;;9.00;;
55800;SDS011;41730;51.960;20.158;2023-05-25T09:46:35;11.20;;;8.70;;
55800;SDS011;41730;51.960;20.158;2023-05-25T09:49:06;13.00;;;9.20;;
55800;SDS011;41730;51.960;20.158;2023-05-25T09:51:36;11.20;;;8.90;;
55800;SDS011;41730;51.960;20.158;2023-05-25T09:54:07;10.30;;;8.50;;
55800;SDS011;41730;51.960;20.158;2023-05-25T09:56:37;12.20;;;8.70;;
55800;SDS011;41730;51.960;20.158;2023-05-25T09:59:07;9.90;;;8.80;;
55800;SDS011;41730;51.960;20.158;2023-05-25T10:01:38;11.00;;;8.70;;
55800;SDS011;41730;51.960;20.158;2023-05-25T10:04:10;14.00;;;10.00;;
55800;SDS011;41730;51.960;20.158;2023-05-25T10:06:43;28.00;;;10.30;;
55800;SDS011;41730;51.960;20.158;2023-05-25T10:09:16;13.30;;;9.20;;
55800;SDS011;41730;51.960;20.158;2023-05-25T10:11:47;14.00;;;8.40;;
55800;SDS011;41730;51.960;20.158;2023-05-25T10:14:21;36.50;;;11.00;;
55800;SDS011;41730;51.960;20.158;2023-05-25T10:16:56;9.80;;;8.70;;
55800;SDS011;41730;51.960;20.158;2023-05-25T10:19:28;9.10;;;7.90;;
55800;SDS011;41730;51.960;20.158;2023-05-25T10:22:05;14.40;;;9.60;;
55800;SDS011;41730;51.960;20.158;2023-05-25T10:24:42;9.80;;;8.80;;
55800;SDS011;41730;51.960;20.158;2023-05-25T10:27:18;10.10;;;8.20;;
55800;SDS011;41730;51.960;20.158;2023-05-25T10:29:54;10.10;;;7.70;;
55800;SDS011;41730;51.960;20.158;2023-05-25T10:32:24;11.60;;;8.10;;
55800;SDS011;41730;51.960;20.158;2023-05-25T10:34:55;11.10;;;8.40;;
55800;SDS011;41730;51.960;20.158;2023-05-25T10:37:26;10.50;;;7.70;;
55800;SDS011;41730;51.960;20.158;2023-05-25T10:39:56;11.30;;;7.90;;
55800;SDS011;41730;51.960;20.158;2023-05-25T10:42:26;10.50;;;7.80;;
55800;SDS011;41730;51.960;20.158;2023-05-25T10:44:56;11.00;;;8.10;;
55800;SDS011;41730;51.960;20.158;2023-05-25T10:47:27;10.00;;;7.10;;
55800;SDS011;41730;51.960;20.158;2023-05-25T10:49:57;8.70;;;6.30;;
55800;SDS011;41730;51.960;20.158;2023-05-25T10:52:29;9.60;;;7.10;;
55800;SDS011;41730;51.960;20.158;2023-05-25T10:54:59;7.60;;;6.50;;
55800;SDS011;41730;51.960;20.158;2023-05-25T10:57:30;7.80;;;6.10;;
55800;SDS011;41730;51.960;20.158;2023-05-25T11:00:01;9.60;;;6.80;;
55800;SDS011;41730;51.960;20.158;2023-05-25T11:05:29;9.90;;;6.60;;
55800;SDS011;41730;51.960;20.158;2023-05-25T11:08:00;10.20;;;7.40;;
55800;SDS011;41730;51.960;20.158;2023-05-25T11:10:51;11.50;;;7.00;;
55800;SDS011;41730;51.960;20.158;2023-05-25T11:16:08;10.00;;;7.10;;
55800;SDS011;41730;51.960;20.158;2023-05-25T11:18:40;8.50;;;7.40;;
55800;SDS011;41730;51.960;20.158;2023-05-25T11:21:13;12.70;;;8.00;;
55800;SDS011;41730;51.960;20.158;2023-05-25T11:23:54;12.80;;;8.30;;
55800;SDS011;41730;51.960;20.158;2023-05-25T11:26:25;10.70;;;8.30;;
55800;SDS011;41730;51.960;20.158;2023-05-25T11:28:56;9.80;;;7.80;;
55800;SDS011;41730;51.960;20.158;2023-05-25T11:31:29;10.80;;;7.70;;
55800;SDS011;41730;51.960;20.158;2023-05-25T11:34:06;13.70;;;8.10;;
55800;SDS011;41730;51.960;20.158;2023-05-25T11:36:35;11.60;;;8.60;;
55800;SDS011;41730;51.960;20.158;2023-05-25T11:39:05;11.30;;;8.50;;
55800;SDS011;41730;51.960;20.158;2023-05-25T11:41:50;11.20;;;8.60;;
55800;SDS011;41730;51.960;20.158;2023-05-25T11:44:25;14.30;;;9.70;;
55800;SDS011;41730;51.960;20.158;2023-05-25T11:46:55;11.90;;;8.70;;
55800;SDS011;41730;51.960;20.158;2023-05-25T11:49:28;12.00;;;9.50;;
55800;SDS011;41730;51.960;20.158;2023-05-25T11:51:57;11.20;;;8.80;;
55800;SDS011;41730;51.960;20.158;2023-05-25T11:54:31;11.60;;;9.00;;
55800;SDS011;41730;51.960;20.158;2023-05-25T11:57:00;11.40;;;9.30;;
55800;SDS011;41730;51.960;20.158;2023-05-25T11:59:31;10.70;;;9.20;;
55800;SDS011;41730;51.960;20.158;2023-05-25T12:02:01;12.20;;;9.40;;
55800;SDS011;41730;51.960;20.158;2023-05-25T12:04:32;13.10;;;9.80;;
55800;SDS011;41730;51.960;20.158;2023-05-25T12:07:02;10.30;;;9.00;;
55800;SDS011;41730;51.960;20.158;2023-05-25T12:09:32;11.70;;;8.20;;
55800;SDS011;41730;51.960;20.158;2023-05-25T12:12:02;11.20;;;8.30;;
55800;SDS011;41730;51.960;20.158;2023-05-25T12:14:33;10.30;;;8.60;;
55800;SDS011;41730;51.960;20.158;2023-05-25T12:17:07;11.40;;;7.50;;
55800;SDS011;41730;51.960;20.158;2023-05-25T12:19:36;15.10;;;7.80;;
55800;SDS011;41730;51.960;20.158;2023-05-25T12:22:06;11.60;;;7.50;;
55800;SDS011;41730;51.960;20.158;2023-05-25T12:24:36;12.20;;;8.40;;
55800;SDS011;41730;51.960;20.158;2023-05-25T12:27:09;10.40;;;8.10;;
55800;SDS011;41730;51.960;20.158;2023-05-25T12:29:45;8.90;;;7.80;;
55800;SDS011;41730;51.960;20.158;2023-05-25T12:32:16;9.50;;;7.90;;
55800;SDS011;41730;51.960;20.158;2023-05-25T12:34:46;14.20;;;8.00;;
55800;SDS011;41730;51.960;20.158;2023-05-25T12:37:16;9.40;;;7.10;;
55800;SDS011;41730;51.960;20.158;2023-05-25T12:39:46;8.40;;;7.50;;
55800;SDS011;41730;51.960;20.158;2023-05-25T12:42:17;9.00;;;6.90;;
55800;SDS011;41730;51.960;20.158;2023-05-25T12:44:46;10.90;;;8.30;;
55800;SDS011;41730;51.960;20.158;2023-05-25T12:47:24;9.30;;;7.50;;
55800;SDS011;41730;51.960;20.158;2023-05-25T12:50:09;12.50;;;6.90;;
55800;SDS011;41730;51.960;20.158;2023-05-25T12:52:40;9.90;;;7.70;;
55800;SDS011;41730;51.960;20.158;2023-05-25T12:55:20;13.20;;;7.90;;
55800;SDS011;41730;51.960;20.158;2023-05-25T12:57:52;10.10;;;7.40;;
55800;SDS011;41730;51.960;20.158;2023-05-25T13:00:23;8.90;;;7.00;;
55800;SDS011;41730;51.960;20.158;2023-05-25T13:02:55;12.80;;;8.10;;
55800;SDS011;41730;51.960;20.158;2023-05-25T13:05:25;8.60;;;7.60;;
55800;SDS011;41730;51.960;20.158;2023-05-25T13:07:56;9.20;;;7.50;;
55800;SDS011;41730;51.960;20.158;2023-05-25T13:10:27;10.60;;;8.10;;
55800;SDS011;41730;51.960;20.158;2023-05-25T13:12:58;10.90;;;8.00;;
55800;SDS011;41730;51.960;20.158;2023-05-25T13:15:29;10.70;;;7.80;;
55800;SDS011;41730;51.960;20.158;2023-05-25T13:17:58;11.20;;;8.10;;
55800;SDS011;41730;51.960;20.158;2023-05-25T13:20:28;12.30;;;7.30;;
55800;SDS011;41730;51.960;20.158;2023-05-25T13:22:58;14.60;;;7.50;;
55800;SDS011;41730;51.960;20.158;2023-05-25T13:25:29;12.40;;;7.30;;
55800;SDS011;41730;51.960;20.158;2023-05-25T13:28:10;13.10;;;8.10;;
55800;SDS011;41730;51.960;20.158;2023-05-25T13:30:39;10.40;;;7.90;;
55800;SDS011;41730;51.960;20.158;2023-05-25T13:33:10;9.40;;;7.60;;
55800;SDS011;41730;51.960;20.158;2023-05-25T13:35:39;10.50;;;6.80;;
55800;SDS011;41730;51.960;20.158;2023-05-25T13:38:23;9.70;;;7.40;;
55800;SDS011;41730;51.960;20.158;2023-05-25T13:40:53;11.00;;;7.30;;
55800;SDS011;41730;51.960;20.158;2023-05-25T13:43:23;14.40;;;7.50;;
55800;SDS011;41730;51.960;20.158;2023-05-25T13:45:52;10.50;;;7.30;;
55800;SDS011;41730;51.960;20.158;2023-05-25T13:48:22;9.90;;;7.00;;
55800;SDS011;41730;51.960;20.158;2023-05-25T13:50:51;9.50;;;7.10;;
55800;SDS011;41730;51.960;20.158;2023-05-25T13:53:20;10.60;;;8.00;;
55800;SDS011;41730;51.960;20.158;2023-05-25T13:55:49;9.70;;;7.50;;
55800;SDS011;41730;51.960;20.158;2023-05-25T13:58:19;11.70;;;7.60;;
55800;SDS011;41730;51.960;20.158;2023-05-25T14:00:52;10.10;;;8.00;;
55800;SDS011;41730;51.960;20.158;2023-05-25T14:03:23;10.90;;;7.80;;
55800;SDS011;41730;51.960;20.158;2023-05-25T14:05:52;11.60;;;8.30;;
55800;SDS011;41730;51.960;20.158;2023-05-25T14:08:21;11.50;;;7.60;;
55800;SDS011;41730;51.960;20.158;2023-05-25T14:10:51;11.80;;;8.00;;
55800;SDS011;41730;51.960;20.158;2023-05-25T14:13:20;9.60;;;7.90;;
55800;SDS011;41730;51.960;20.158;2023-05-25T14:15:50;10.60;;;7.70;;
55800;SDS011;41730;51.960;20.158;2023-05-25T14:18:19;9.60;;;7.70;;
55800;SDS011;41730;51.960;20.158;2023-05-25T14:20:49;11.60;;;7.80;;
55800;SDS011;41730;51.960;20.158;2023-05-25T14:23:18;9.90;;;7.70;;
55800;SDS011;41730;51.960;20.158;2023-05-25T14:25:47;8.20;;;6.90;;
55800;SDS011;41730;51.960;20.158;2023-05-25T14:28:17;9.00;;;7.80;;
55800;SDS011;41730;51.960;20.158;2023-05-25T14:30:46;8.70;;;6.70;;
55800;SDS011;41730;51.960;20.158;2023-05-25T14:33:17;12.00;;;7.50;;
55800;SDS011;41730;51.960;20.158;2023-05-25T14:35:47;8.90;;;7.30;;
55800;SDS011;41730;51.960;20.158;2023-05-25T14:38:16;9.00;;;7.20;;
55800;SDS011;41730;51.960;20.158;2023-05-25T14:40:45;8.00;;;7.10;;
55800;SDS011;41730;51.960;20.158;2023-05-25T14:43:13;9.70;;;7.10;;